Time,TemperatureF,DewpointF,PressureIn,WindDirection,WindDirectionDegrees,WindSpeedMPH,WindSpeedGustMPH,Humidity,HourlyPrecipIn,Conditions,Clouds,dailyrainin,SolarRadiationWatts/m^2,SoftwareType,DateUTC
2013-02-18 00:02:00,25.7,14.9,29.90,SSE,155,11.0,13.0,63,0.00,,,0.00,0,WeatherHawk,2013-02-18 06:02:00,
2013-02-18 00:07:00,25.5,15.0,29.91,ESE,117,7.0,13.0,64,0.00,,,0.00,0,WeatherHawk,2013-02-18 06:07:00,
2013-02-18 00:12:00,25.7,15.3,29.91,South,174,9.0,12.0,64,0.00,,,0.00,0,WeatherHawk,2013-02-18 06:12:00,
2013-02-18 00:17:00,25.3,14.8,29.90,South,170,6.0,12.0,64,0.00,,,0.00,0,WeatherHawk,2013-02-18 06:17:00,
2013-02-18 00:23:00,25.3,15.2,29.90,SSE,166,7.0,12.0,65,0.00,,,0.00,0,WeatherHawk,2013-02-18 06:23:00,
2013-02-18 00:28:00,25.6,15.5,29.90,SSE,166,11.0,12.0,65,0.00,,,0.00,0,WeatherHawk,2013-02-18 06:28:00,
2013-02-18 00:34:00,25.7,15.6,29.90,SSE,148,6.0,12.0,65,0.00,,,0.00,0,WeatherHawk,2013-02-18 06:34:00,
2013-02-18 00:39:00,25.8,15.4,29.90,South,171,5.0,12.0,64,0.00,,,0.00,0,WeatherHawk,2013-02-18 06:39:00,
2013-02-18 00:44:00,25.9,15.5,29.90,SSW,193,8.0,11.0,64,0.00,,,0.00,0,WeatherHawk,2013-02-18 06:44:00,
2013-02-18 00:49:00,26.2,15.7,29.90,SSE,147,9.0,11.0,64,0.00,,,0.00,0,WeatherHawk,2013-02-18 06:49:00,
2013-02-18 00:55:00,25.9,15.8,29.90,ESE,119,6.0,12.0,65,0.00,,,0.00,0,WeatherHawk,2013-02-18 06:55:00,
2013-02-18 01:00:00,26.1,15.6,29.90,SE,146,8.0,12.0,64,0.00,,,0.00,0,WeatherHawk,2013-02-18 07:00:00,
2013-02-18 01:05:00,26.1,15.6,29.90,South,187,8.0,12.0,64,0.00,,,0.00,0,WeatherHawk,2013-02-18 07:05:00,
2013-02-18 01:10:00,26.2,15.7,29.89,SSE,168,10.0,12.0,64,0.00,,,0.00,1,WeatherHawk,2013-02-18 07:10:00,
2013-02-18 01:15:00,26.7,16.2,29.89,SE,143,9.0,11.0,64,0.00,,,0.00,0,WeatherHawk,2013-02-18 07:15:00,
2013-02-18 01:20:00,26.5,16.0,29.89,South,175,10.0,11.0,64,0.00,,,0.00,0,WeatherHawk,2013-02-18 07:20:00,
2013-02-18 01:25:00,26.4,15.9,29.89,South,177,9.0,12.0,64,0.00,,,0.00,0,WeatherHawk,2013-02-18 07:25:00,
2013-02-18 01:31:00,26.2,15.4,29.89,ESE,120,9.0,13.0,63,0.00,,,0.00,0,WeatherHawk,2013-02-18 07:31:00,
2013-02-18 01:37:00,26.7,15.8,29.88,SSE,166,11.0,13.0,63,0.00,,,0.00,0,WeatherHawk,2013-02-18 07:37:00,
2013-02-18 01:42:00,26.2,15.7,29.88,SE,127,9.0,12.0,64,0.00,,,0.00,1,WeatherHawk,2013-02-18 07:42:00,
2013-02-18 01:47:00,25.9,15.4,29.88,South,169,8.0,12.0,64,0.00,,,0.00,0,WeatherHawk,2013-02-18 07:47:00,
2013-02-18 01:53:00,25.9,15.8,29.87,SSE,162,7.0,11.0,65,0.00,,,0.00,1,WeatherHawk,2013-02-18 07:53:00,
2013-02-18 01:59:00,26.1,16.0,29.88,SSE,164,10.0,11.0,65,0.00,,,0.00,0,WeatherHawk,2013-02-18 07:59:00,
2013-02-18 02:05:00,25.8,15.7,29.87,SE,141,7.0,12.0,65,0.00,,,0.00,0,WeatherHawk,2013-02-18 08:05:00,
2013-02-18 02:10:00,26.4,16.3,29.87,SE,142,9.0,12.0,65,0.00,,,0.00,0,WeatherHawk,2013-02-18 08:10:00,
2013-02-18 02:15:00,26.5,16.0,29.86,SE,140,11.0,11.0,64,0.00,,,0.00,1,WeatherHawk,2013-02-18 08:15:00,
2013-02-18 02:21:00,26.3,15.8,29.86,East,84,9.0,0.0,64,0.00,,,0.00,0,WeatherHawk,2013-02-18 08:21:00,
2013-02-18 02:26:00,26.0,15.8,29.85,South,173,6.0,11.0,65,0.00,,,0.00,0,WeatherHawk,2013-02-18 08:26:00,
2013-02-18 02:32:00,25.8,15.7,29.85,SSE,167,8.0,11.0,65,0.00,,,0.00,0,WeatherHawk,2013-02-18 08:32:00,
2013-02-18 02:37:00,25.8,15.6,29.85,South,183,7.0,11.0,65,0.00,,,0.00,0,WeatherHawk,2013-02-18 08:37:00,
2013-02-18 02:42:00,25.8,16.0,29.85,SSE,155,7.0,11.0,66,0.00,,,0.00,0,WeatherHawk,2013-02-18 08:42:00,
2013-02-18 02:47:00,25.8,16.4,29.84,SE,142,10.0,11.0,67,0.00,,,0.00,0,WeatherHawk,2013-02-18 08:47:00,
2013-02-18 02:52:00,25.5,16.1,29.83,SE,129,6.0,11.0,67,0.00,,,0.00,0,WeatherHawk,2013-02-18 08:52:00,
2013-02-18 02:57:00,25.4,16.0,29.83,SSE,155,6.0,11.0,67,0.00,,,0.00,0,WeatherHawk,2013-02-18 08:57:00,
2013-02-18 03:02:00,25.6,16.1,29.83,SSE,164,6.0,12.0,67,0.00,,,0.00,0,WeatherHawk,2013-02-18 09:02:00,
2013-02-18 03:07:00,25.4,16.3,29.82,South,177,7.0,12.0,68,0.00,,,0.00,0,WeatherHawk,2013-02-18 09:07:00,
2013-02-18 03:12:00,26.1,17.0,29.82,SSW,194,9.0,10.0,68,0.00,,,0.00,1,WeatherHawk,2013-02-18 09:12:00,
2013-02-18 03:17:00,25.8,16.7,29.81,SSE,157,6.0,10.0,68,0.00,,,0.00,0,WeatherHawk,2013-02-18 09:17:00,
2013-02-18 03:23:00,26.0,16.5,29.81,SSE,157,7.0,11.0,67,0.00,,,0.00,0,WeatherHawk,2013-02-18 09:23:00,
2013-02-18 03:28:00,25.9,16.9,29.80,South,172,9.0,11.0,68,0.00,,,0.00,0,WeatherHawk,2013-02-18 09:28:00,
2013-02-18 03:33:00,26.5,17.0,29.80,SSE,156,10.0,11.0,67,0.00,,,0.00,0,WeatherHawk,2013-02-18 09:33:00,
2013-02-18 03:38:00,26.1,16.3,29.80,South,190,6.0,11.0,66,0.00,,,0.00,0,WeatherHawk,2013-02-18 09:38:00,
2013-02-18 03:43:00,26.5,17.1,29.79,SSE,161,11.0,14.0,67,0.00,,,0.00,0,WeatherHawk,2013-02-18 09:43:00,
2013-02-18 03:49:00,26.7,16.9,29.79,South,172,10.0,14.0,66,0.00,,,0.00,0,WeatherHawk,2013-02-18 09:49:00,
2013-02-18 03:55:00,26.1,16.4,29.79,South,182,7.0,14.0,66,0.00,,,0.00,0,WeatherHawk,2013-02-18 09:55:00,
2013-02-18 04:00:00,26.7,16.9,29.79,SE,134,8.0,14.0,66,0.00,,,0.00,1,WeatherHawk,2013-02-18 10:00:00,
2013-02-18 04:05:00,26.8,17.4,29.79,South,180,6.0,12.0,67,0.00,,,0.00,0,WeatherHawk,2013-02-18 10:05:00,
2013-02-18 04:10:00,26.8,17.3,29.78,SSE,161,9.0,12.0,67,0.00,,,0.00,0,WeatherHawk,2013-02-18 10:10:00,
2013-02-18 04:15:00,27.2,17.7,29.78,SSE,157,13.0,13.0,67,0.00,,,0.00,0,WeatherHawk,2013-02-18 10:15:00,
2013-02-18 04:20:00,27.0,17.5,29.77,SSE,160,10.0,13.0,67,0.00,,,0.00,0,WeatherHawk,2013-02-18 10:20:00,
2013-02-18 04:25:00,27.0,17.5,29.77,SSE,161,7.0,13.0,67,0.00,,,0.00,0,WeatherHawk,2013-02-18 10:25:00,
2013-02-18 04:30:00,27.3,17.5,29.77,South,175,11.0,13.0,66,0.00,,,0.00,0,WeatherHawk,2013-02-18 10:30:00,
2013-02-18 04:36:00,27.1,17.3,29.77,SSE,148,7.0,13.0,66,0.00,,,0.00,0,WeatherHawk,2013-02-18 10:36:00,
2013-02-18 04:41:00,27.2,17.4,29.77,SSE,166,7.0,14.0,66,0.00,,,0.00,0,WeatherHawk,2013-02-18 10:41:00,
2013-02-18 04:46:00,27.5,18.0,29.77,SE,125,10.0,14.0,67,0.00,,,0.00,0,WeatherHawk,2013-02-18 10:46:00,
2013-02-18 04:52:00,27.2,17.8,29.77,South,170,7.0,15.0,67,0.00,,,0.00,1,WeatherHawk,2013-02-18 10:52:00,
2013-02-18 04:57:00,27.8,17.9,29.76,SSE,160,6.0,15.0,66,0.00,,,0.00,0,WeatherHawk,2013-02-18 10:57:00,
2013-02-18 05:02:00,27.5,18.0,29.76,SSE,167,5.0,12.0,67,0.00,,,0.00,0,WeatherHawk,2013-02-18 11:02:00,
2013-02-18 05:08:00,28.0,18.5,29.76,South,172,8.0,12.0,67,0.00,,,0.00,1,WeatherHawk,2013-02-18 11:08:00,
2013-02-18 05:13:00,27.8,18.3,29.76,SSE,164,5.0,10.0,67,0.00,,,0.00,0,WeatherHawk,2013-02-18 11:13:00,
2013-02-18 05:19:00,28.0,18.5,29.75,SSE,157,7.0,10.0,67,0.00,,,0.00,1,WeatherHawk,2013-02-18 11:19:00,
2013-02-18 05:25:00,28.1,18.5,29.75,SE,144,7.0,9.0,67,0.00,,,0.00,0,WeatherHawk,2013-02-18 11:25:00,
2013-02-18 05:30:00,28.0,18.5,29.75,SSE,155,7.0,9.0,67,0.00,,,0.00,0,WeatherHawk,2013-02-18 11:30:00,
2013-02-18 05:35:00,28.4,18.9,29.75,South,171,9.0,12.0,67,0.00,,,0.00,0,WeatherHawk,2013-02-18 11:35:00,
2013-02-18 05:40:00,28.6,18.7,29.75,South,174,7.0,12.0,66,0.00,,,0.00,1,WeatherHawk,2013-02-18 11:40:00,
2013-02-18 05:45:00,28.6,18.7,29.75,South,179,8.0,9.0,66,0.00,,,0.00,0,WeatherHawk,2013-02-18 11:45:00,
2013-02-18 05:50:00,28.9,18.7,29.74,SSE,160,10.0,10.0,65,0.00,,,0.00,0,WeatherHawk,2013-02-18 11:50:00,
2013-02-18 05:56:00,28.6,18.7,29.74,South,172,8.0,13.0,66,0.00,,,0.00,0,WeatherHawk,2013-02-18 11:56:00,
2013-02-18 06:02:00,28.9,19.0,29.74,SSE,162,7.0,12.0,66,0.00,,,0.00,0,WeatherHawk,2013-02-18 12:02:00,
2013-02-18 06:07:00,28.8,18.9,29.74,South,177,6.0,12.0,66,0.00,,,0.00,0,WeatherHawk,2013-02-18 12:07:00,
2013-02-18 06:12:00,28.8,18.9,29.74,SSE,158,6.0,11.0,66,0.00,,,0.00,0,WeatherHawk,2013-02-18 12:12:00,
2013-02-18 06:17:00,28.7,19.1,29.74,SSE,151,5.0,11.0,67,0.00,,,0.00,0,WeatherHawk,2013-02-18 12:17:00,
2013-02-18 06:22:00,28.8,19.3,29.74,SE,139,5.0,10.0,67,0.00,,,0.00,0,WeatherHawk,2013-02-18 12:22:00,
2013-02-18 06:27:00,28.4,18.8,29.74,South,187,5.0,10.0,67,0.00,,,0.00,0,WeatherHawk,2013-02-18 12:27:00,
2013-02-18 06:33:00,27.9,18.4,29.73,South,183,0.0,9.0,67,0.00,,,0.00,1,WeatherHawk,2013-02-18 12:33:00,
2013-02-18 06:38:00,28.4,19.2,29.73,South,178,8.0,9.0,68,0.00,,,0.00,1,WeatherHawk,2013-02-18 12:38:00,
2013-02-18 06:44:00,29.0,19.8,29.73,South,174,10.0,10.0,68,0.00,,,0.00,0,WeatherHawk,2013-02-18 12:44:00,
2013-02-18 06:49:00,29.0,19.5,29.73,SSE,161,7.0,10.0,67,0.00,,,0.00,2,WeatherHawk,2013-02-18 12:49:00,
2013-02-18 06:54:00,29.0,19.4,29.72,South,174,6.0,10.0,67,0.00,,,0.00,3,WeatherHawk,2013-02-18 12:54:00,
2013-02-18 06:59:00,28.8,19.6,29.72,SSW,198,5.0,10.0,68,0.00,,,0.00,6,WeatherHawk,2013-02-18 12:59:00,
2013-02-18 07:04:00,29.0,20.1,29.72,SSE,160,8.0,12.0,69,0.00,,,0.00,8,WeatherHawk,2013-02-18 13:04:00,
2013-02-18 07:09:00,29.3,20.1,29.72,SSE,162,10.0,12.0,68,0.00,,,0.00,10,WeatherHawk,2013-02-18 13:09:00,
2013-02-18 07:14:00,29.2,19.6,29.73,SSE,167,8.0,10.0,67,0.00,,,0.00,12,WeatherHawk,2013-02-18 13:14:00,
2013-02-18 07:19:00,29.0,19.5,29.73,SSE,164,7.0,10.0,67,0.00,,,0.00,18,WeatherHawk,2013-02-18 13:19:00,
2013-02-18 07:24:00,29.5,19.9,29.72,South,171,7.0,14.0,67,0.00,,,0.00,23,WeatherHawk,2013-02-18 13:24:00,
2013-02-18 07:30:00,29.3,19.8,29.72,South,181,10.0,14.0,67,0.00,,,0.00,29,WeatherHawk,2013-02-18 13:30:00,
2013-02-18 07:35:00,29.6,20.0,29.71,South,184,9.0,12.0,67,0.00,,,0.00,36,WeatherHawk,2013-02-18 13:35:00,
2013-02-18 07:40:00,29.3,19.7,29.71,SSE,162,7.0,12.0,67,0.00,,,0.00,41,WeatherHawk,2013-02-18 13:40:00,
2013-02-18 07:45:00,29.6,19.7,29.71,South,171,9.0,-999.0,66,0.00,,,0.00,51,WeatherHawk,2013-02-18 13:45:00,
2013-02-18 07:50:00,29.6,20.0,29.71,SSE,159,8.0,11.0,67,0.00,,,0.00,57,WeatherHawk,2013-02-18 13:50:00,
2013-02-18 07:55:00,29.8,20.2,29.71,SSE,166,10.0,14.0,67,0.00,,,0.00,66,WeatherHawk,2013-02-18 13:55:00,
2013-02-18 08:00:00,29.9,20.3,29.71,SSW,196,7.0,14.0,67,0.00,,,0.00,76,WeatherHawk,2013-02-18 14:00:00,
2013-02-18 08:07:00,29.8,20.2,29.72,South,174,9.0,14.0,67,0.00,,,0.00,89,WeatherHawk,2013-02-18 14:07:00,
2013-02-18 08:13:00,30.2,20.2,29.71,South,178,7.0,14.0,66,0.00,,,0.00,112,WeatherHawk,2013-02-18 14:13:00,
2013-02-18 08:18:00,30.3,19.9,29.71,South,172,5.0,14.0,65,0.00,,,0.00,130,WeatherHawk,2013-02-18 14:18:00,
2013-02-18 08:24:00,30.8,20.0,29.71,SSE,162,8.0,13.0,64,0.00,,,0.00,159,WeatherHawk,2013-02-18 14:24:00,
2013-02-18 08:29:00,31.1,20.4,29.71,South,174,3.0,13.0,64,0.00,,,0.00,165,WeatherHawk,2013-02-18 14:29:00,
2013-02-18 08:35:00,31.3,20.2,29.71,South,174,8.0,13.0,63,0.00,,,0.00,176,WeatherHawk,2013-02-18 14:35:00,
2013-02-18 08:40:00,31.4,19.9,29.71,South,178,10.0,13.0,62,0.00,,,0.00,180,WeatherHawk,2013-02-18 14:40:00,
2013-02-18 08:45:00,31.6,20.1,29.70,South,172,10.0,14.0,62,0.00,,,0.00,193,WeatherHawk,2013-02-18 14:45:00,
2013-02-18 08:50:00,31.6,20.1,29.70,SSE,165,6.0,14.0,62,0.00,,,0.00,183,WeatherHawk,2013-02-18 14:50:00,
2013-02-18 08:55:00,32.1,20.2,29.70,SSE,155,7.0,12.0,61,0.00,,,0.00,228,WeatherHawk,2013-02-18 14:55:00,
2013-02-18 09:00:00,32.6,20.2,29.69,South,191,5.0,12.0,60,0.00,,,0.00,213,WeatherHawk,2013-02-18 15:00:00,
2013-02-18 09:06:00,32.4,20.1,29.70,South,183,5.0,13.0,60,0.00,,,0.00,203,WeatherHawk,2013-02-18 15:06:00,
2013-02-18 09:11:00,32.2,19.9,29.69,South,176,6.0,10.0,60,0.00,,,0.00,203,WeatherHawk,2013-02-18 15:11:00,
2013-02-18 09:16:00,32.5,19.8,29.69,South,174,10.0,10.0,59,0.00,,,0.00,221,WeatherHawk,2013-02-18 15:16:00,
2013-02-18 09:22:00,32.7,20.3,29.69,SSW,196,8.0,10.0,60,0.00,,,0.00,208,WeatherHawk,2013-02-18 15:22:00,
2013-02-18 09:27:00,33.2,20.5,29.68,South,179,6.0,10.0,59,0.00,,,0.00,258,WeatherHawk,2013-02-18 15:27:00,
2013-02-18 09:32:00,33.8,20.2,29.68,SSE,163,9.0,10.0,57,0.00,,,0.00,342,WeatherHawk,2013-02-18 15:32:00,
2013-02-18 09:37:00,34.1,20.1,29.68,South,175,11.0,11.0,56,0.00,,,0.00,382,WeatherHawk,2013-02-18 15:37:00,
2013-02-18 09:42:00,33.9,19.9,29.68,South,173,9.0,9.0,56,0.00,,,0.00,284,WeatherHawk,2013-02-18 15:42:00,
2013-02-18 09:48:00,34.2,20.2,29.67,SSE,164,6.0,9.0,56,0.00,,,0.00,298,WeatherHawk,2013-02-18 15:48:00,
2013-02-18 09:53:00,34.7,20.7,29.67,South,180,8.0,11.0,56,0.00,,,0.00,308,WeatherHawk,2013-02-18 15:53:00,
2013-02-18 09:58:00,34.7,20.7,29.67,SSE,165,7.0,11.0,56,0.00,,,0.00,322,WeatherHawk,2013-02-18 15:58:00,
2013-02-18 10:03:00,35.7,21.1,29.66,South,189,7.0,10.0,55,0.00,,,0.00,388,WeatherHawk,2013-02-18 16:03:00,
2013-02-18 10:08:00,35.0,19.6,29.68,South,173,10.0,10.0,53,0.00,,,0.00,351,WeatherHawk,2013-02-18 16:08:00,
2013-02-18 10:13:00,35.2,20.2,29.67,South,173,10.0,11.0,54,0.00,,,0.00,306,WeatherHawk,2013-02-18 16:13:00,
2013-02-18 10:18:00,35.5,21.0,29.67,South,182,5.0,11.0,55,0.00,,,0.00,288,WeatherHawk,2013-02-18 16:18:00,
2013-02-18 10:24:00,36.0,21.0,29.67,SSE,159,7.0,13.0,54,0.00,,,0.00,302,WeatherHawk,2013-02-18 16:24:00,
2013-02-18 10:29:00,36.1,21.5,29.67,South,181,8.0,13.0,55,0.00,,,0.00,354,WeatherHawk,2013-02-18 16:29:00,
2013-02-18 10:35:00,36.4,21.4,29.67,SSE,165,6.0,12.0,54,0.00,,,0.00,347,WeatherHawk,2013-02-18 16:35:00,
2013-02-18 10:40:00,36.6,21.1,29.66,South,176,5.0,12.0,53,0.00,,,0.00,389,WeatherHawk,2013-02-18 16:40:00,
2013-02-18 10:46:00,37.9,21.4,29.65,SSE,152,7.0,11.0,51,0.00,,,0.00,456,WeatherHawk,2013-02-18 16:46:00,
2013-02-18 10:52:00,38.8,21.8,29.65,SSW,213,6.0,10.0,50,0.00,,,0.00,494,WeatherHawk,2013-02-18 16:52:00,
2013-02-18 10:57:00,38.9,21.4,29.66,South,187,4.0,10.0,49,0.00,,,0.00,462,WeatherHawk,2013-02-18 16:57:00,
2013-02-18 11:02:00,38.2,19.8,29.66,South,172,6.0,10.0,47,0.00,,,0.00,400,WeatherHawk,2013-02-18 17:02:00,
2013-02-18 11:08:00,37.8,19.4,29.66,South,169,8.0,10.0,47,0.00,,,0.00,353,WeatherHawk,2013-02-18 17:08:00,
2013-02-18 11:14:00,38.2,20.8,29.65,South,184,4.0,11.0,49,0.00,,,0.00,332,WeatherHawk,2013-02-18 17:14:00,
2013-02-18 11:19:00,38.7,20.8,29.64,SSE,162,3.0,11.0,48,0.00,,,0.00,313,WeatherHawk,2013-02-18 17:19:00,
2013-02-18 11:24:00,39.6,21.1,29.64,South,188,6.0,9.0,47,0.00,,,0.00,406,WeatherHawk,2013-02-18 17:24:00,
2013-02-18 11:30:00,39.9,21.8,29.64,SSW,195,4.0,9.0,48,0.00,,,0.00,379,WeatherHawk,2013-02-18 17:30:00,
2013-02-18 11:35:00,38.8,20.8,29.64,South,177,10.0,12.0,48,0.00,,,0.00,377,WeatherHawk,2013-02-18 17:35:00,
2013-02-18 11:40:00,39.7,21.7,29.63,West,263,9.0,12.0,48,0.00,,,0.00,345,WeatherHawk,2013-02-18 17:40:00,
2013-02-18 11:45:00,39.3,21.7,29.63,SSE,168,4.0,-999.0,49,0.00,,,0.00,321,WeatherHawk,2013-02-18 17:45:00,
2013-02-18 11:50:00,39.5,21.5,29.62,SE,133,8.0,12.0,48,0.00,,,0.00,393,WeatherHawk,2013-02-18 17:50:00,
2013-02-18 11:55:00,41.3,22.6,29.62,South,188,5.0,10.0,47,0.00,,,0.00,429,WeatherHawk,2013-02-18 17:55:00,
2013-02-18 12:00:00,40.0,20.9,29.62,SSE,166,8.0,-999.0,46,0.00,,,0.00,442,WeatherHawk,2013-02-18 18:00:00,
2013-02-18 12:05:00,41.7,22.5,29.62,South,185,5.0,10.0,46,0.00,,,0.00,498,WeatherHawk,2013-02-18 18:05:00,
2013-02-18 12:10:00,40.8,21.6,29.61,SW,217,7.0,10.0,46,0.00,,,0.00,317,WeatherHawk,2013-02-18 18:10:00,
2013-02-18 12:16:00,40.1,21.0,29.61,South,178,7.0,10.0,46,0.00,,,0.00,309,WeatherHawk,2013-02-18 18:16:00,
2013-02-18 12:22:00,41.0,22.8,29.60,SSE,168,7.0,11.0,48,0.00,,,0.00,434,WeatherHawk,2013-02-18 18:22:00,
2013-02-18 12:27:00,41.1,22.4,29.60,South,174,5.0,11.0,47,0.00,,,0.00,454,WeatherHawk,2013-02-18 18:27:00,
2013-02-18 12:32:00,40.8,22.6,29.60,SSE,163,9.0,9.0,48,0.00,,,0.00,362,WeatherHawk,2013-02-18 18:32:00,
2013-02-18 12:38:00,41.3,22.6,29.60,South,177,8.0,9.0,47,0.00,,,0.00,537,WeatherHawk,2013-02-18 18:38:00,
2013-02-18 12:44:00,41.8,22.5,29.60,South,176,7.0,13.0,46,0.00,,,0.00,498,WeatherHawk,2013-02-18 18:44:00,
2013-02-18 12:50:00,41.5,22.3,29.58,South,181,8.0,13.0,46,0.00,,,0.00,523,WeatherHawk,2013-02-18 18:50:00,
2013-02-18 12:55:00,42.5,22.6,29.59,South,190,9.0,10.0,45,0.00,,,0.00,528,WeatherHawk,2013-02-18 18:55:00,
2013-02-18 13:00:00,42.4,23.1,29.59,South,177,7.0,10.0,46,0.00,,,0.00,340,WeatherHawk,2013-02-18 19:00:00,
2013-02-18 13:05:00,42.4,23.7,29.58,SSE,160,4.0,11.0,47,0.00,,,0.00,421,WeatherHawk,2013-02-18 19:05:00,
2013-02-18 13:11:00,42.2,23.5,29.58,South,174,7.0,11.0,47,0.00,,,0.00,419,WeatherHawk,2013-02-18 19:11:00,
2013-02-18 13:16:00,42.0,23.2,29.58,SSE,158,7.0,11.0,47,0.00,,,0.00,430,WeatherHawk,2013-02-18 19:16:00,
2013-02-18 13:22:00,44.2,24.3,29.58,South,178,4.0,9.0,45,0.00,,,0.00,588,WeatherHawk,2013-02-18 19:22:00,
2013-02-18 13:27:00,43.6,23.7,29.58,South,176,6.0,9.0,45,0.00,,,0.00,482,WeatherHawk,2013-02-18 19:27:00,
2013-02-18 13:32:00,43.3,22.9,29.58,ESE,121,5.0,10.0,44,0.00,,,0.00,430,WeatherHawk,2013-02-18 19:32:00,
2013-02-18 13:38:00,43.6,23.7,29.57,SSE,160,4.0,10.0,45,0.00,,,0.00,448,WeatherHawk,2013-02-18 19:38:00,
2013-02-18 13:44:00,43.5,23.6,29.57,South,170,6.0,11.0,45,0.00,,,0.00,440,WeatherHawk,2013-02-18 19:44:00,
2013-02-18 13:50:00,43.9,24.5,29.57,South,181,4.0,11.0,46,0.00,,,0.00,450,WeatherHawk,2013-02-18 19:50:00,
2013-02-18 13:55:00,43.1,23.7,29.57,South,181,5.0,9.0,46,0.00,,,0.00,399,WeatherHawk,2013-02-18 19:55:00,
2013-02-18 14:00:00,44.3,25.3,29.57,South,172,4.0,9.0,47,0.00,,,0.00,395,WeatherHawk,2013-02-18 20:00:00,
2013-02-18 14:06:00,43.5,24.6,29.58,South,177,5.0,9.0,47,0.00,,,0.00,281,WeatherHawk,2013-02-18 20:06:00,
2013-02-18 14:12:00,43.0,24.7,29.57,South,188,5.0,11.0,48,0.00,,,0.00,214,WeatherHawk,2013-02-18 20:12:00,
2013-02-18 14:17:00,43.3,25.4,29.57,South,182,5.0,11.0,49,0.00,,,0.00,170,WeatherHawk,2013-02-18 20:17:00,
2013-02-18 14:22:00,43.4,26.5,29.57,SSW,194,4.0,10.0,51,0.00,,,0.00,130,WeatherHawk,2013-02-18 20:22:00,
2013-02-18 14:28:00,42.4,26.0,29.57,SSW,204,1.0,10.0,52,0.00,,,0.00,102,WeatherHawk,2013-02-18 20:28:00,
2013-02-18 14:34:00,42.5,26.6,29.57,SSW,200,2.0,10.0,53,0.00,,,0.00,106,WeatherHawk,2013-02-18 20:34:00,
2013-02-18 14:40:00,42.3,26.9,29.57,South,186,0.0,10.0,54,0.00,,,0.00,116,WeatherHawk,2013-02-18 20:40:00,
2013-02-18 14:45:00,43.4,27.9,29.56,SSE,168,2.0,7.0,54,0.00,,,0.00,289,WeatherHawk,2013-02-18 20:45:00,
2013-02-18 14:50:00,43.4,27.4,29.56,South,171,5.0,7.0,53,0.00,,,0.00,204,WeatherHawk,2013-02-18 20:50:00,
2013-02-18 14:56:00,43.4,27.5,29.54,SSE,166,5.0,5.0,53,0.00,,,0.00,141,WeatherHawk,2013-02-18 20:56:00,
2013-02-18 15:01:00,42.5,27.5,29.55,SSE,161,5.0,5.0,55,0.00,,,0.00,131,WeatherHawk,2013-02-18 21:01:00,
2013-02-18 15:06:00,42.8,28.2,29.54,SSE,166,8.0,8.0,56,0.00,,,0.00,113,WeatherHawk,2013-02-18 21:06:00,
2013-02-18 15:12:00,42.2,27.6,29.54,SSW,195,1.0,7.0,56,0.00,,,0.00,110,WeatherHawk,2013-02-18 21:12:00,
2013-02-18 15:17:00,42.1,28.4,29.54,South,175,2.0,7.0,58,0.00,,,0.00,116,WeatherHawk,2013-02-18 21:17:00,
2013-02-18 15:22:00,42.1,28.0,29.54,SSE,168,2.0,8.0,57,0.00,,,0.00,113,WeatherHawk,2013-02-18 21:22:00,
2013-02-18 15:27:00,41.6,28.0,29.54,South,178,1.0,8.0,58,0.00,,,0.00,61,WeatherHawk,2013-02-18 21:27:00,
2013-02-18 15:33:00,40.4,28.1,29.54,South,169,1.0,7.0,61,0.00,,,0.00,27,WeatherHawk,2013-02-18 21:33:00,
2013-02-18 15:38:00,41.4,30.2,29.54,SSE,154,3.0,7.0,64,0.00,,,0.00,20,WeatherHawk,2013-02-18 21:38:00,
2013-02-18 15:43:00,40.9,30.1,29.53,SSE,168,1.0,3.0,65,0.00,,,0.00,40,WeatherHawk,2013-02-18 21:43:00,
2013-02-18 15:48:00,40.1,30.0,29.53,South,171,0.0,3.0,67,0.00,,,0.00,29,WeatherHawk,2013-02-18 21:48:00,
2013-02-18 15:54:00,40.0,31.1,29.53,South,171,0.0,4.0,70,0.00,,,0.00,20,WeatherHawk,2013-02-18 21:54:00,
2013-02-18 15:59:00,39.6,31.4,29.53,South,171,0.0,4.0,72,0.00,,,0.00,16,WeatherHawk,2013-02-18 21:59:00,
2013-02-18 16:06:00,40.4,32.8,29.52,South,171,0.0,2.0,74,0.00,,,0.00,18,WeatherHawk,2013-02-18 22:06:00,
2013-02-18 16:11:00,40.2,32.9,29.52,South,171,0.0,2.0,75,0.00,,,0.00,13,WeatherHawk,2013-02-18 22:11:00,
2013-02-18 16:16:00,40.8,34.1,29.52,SW,224,0.0,0.0,77,0.00,,,0.00,4,WeatherHawk,2013-02-18 22:16:00,
2013-02-18 16:22:00,39.7,33.4,29.53,West,270,0.0,0.0,78,0.00,,,0.00,4,WeatherHawk,2013-02-18 22:22:00,
2013-02-18 16:27:00,39.5,33.6,29.53,West,270,0.0,0.0,79,0.00,,,0.00,5,WeatherHawk,2013-02-18 22:27:00,
2013-02-18 16:34:00,40.2,35.2,29.52,West,268,0.0,0.0,82,0.00,,,0.00,5,WeatherHawk,2013-02-18 22:34:00,
2013-02-18 16:39:00,40.4,35.7,29.53,WSW,244,0.0,0.0,83,0.00,,,0.00,3,WeatherHawk,2013-02-18 22:39:00,
2013-02-18 16:45:00,40.4,35.7,29.52,WSW,241,0.0,0.0,83,0.00,,,0.00,4,WeatherHawk,2013-02-18 22:45:00,
2013-02-18 16:50:00,40.4,36.3,29.53,SW,222,0.0,0.0,85,0.00,,,0.00,5,WeatherHawk,2013-02-18 22:50:00,
2013-02-18 16:56:00,40.4,36.0,29.52,SW,233,0.0,1.0,84,0.00,,,0.00,5,WeatherHawk,2013-02-18 22:56:00,
2013-02-18 17:01:00,39.5,35.3,29.52,SW,233,0.0,1.0,85,0.00,,,0.00,5,WeatherHawk,2013-02-18 23:01:00,
2013-02-18 17:06:00,40.0,36.4,29.51,SW,233,0.0,2.0,87,0.00,,,0.00,6,WeatherHawk,2013-02-18 23:06:00,
2013-02-18 17:13:00,39.3,36.0,29.52,SW,233,0.0,0.0,88,0.00,,,0.00,1,WeatherHawk,2013-02-18 23:13:00,
2013-02-18 17:18:00,38.9,35.9,29.52,NW,319,0.0,0.0,89,0.00,,,0.00,3,WeatherHawk,2013-02-18 23:18:00,
2013-02-18 17:24:00,38.4,35.7,29.51,WSW,256,0.0,0.0,90,0.00,,,0.00,0,WeatherHawk,2013-02-18 23:24:00,
2013-02-18 17:29:00,38.7,36.0,29.52,West,280,0.0,0.0,90,0.00,,,0.00,0,WeatherHawk,2013-02-18 23:29:00,
2013-02-18 17:34:00,37.9,35.2,29.51,WNW,288,0.0,1.0,90,0.00,,,0.00,0,WeatherHawk,2013-02-18 23:34:00,
2013-02-18 17:39:00,38.4,35.7,29.52,NNW,327,0.0,1.0,90,0.00,,,0.00,0,WeatherHawk,2013-02-18 23:39:00,
2013-02-18 17:44:00,38.2,35.0,29.52,NW,320,3.0,3.0,88,0.00,,,0.00,0,WeatherHawk,2013-02-18 23:44:00,
2013-02-18 17:49:00,37.8,34.6,29.53,WNW,290,0.0,1.0,88,0.00,,,0.00,0,WeatherHawk,2013-02-18 23:49:00,
2013-02-18 17:55:00,37.3,34.1,29.53,WNW,295,0.0,5.0,88,0.00,,,0.00,0,WeatherHawk,2013-02-18 23:55:00,
2013-02-18 18:00:00,37.5,34.2,29.53,NW,313,2.0,5.0,88,0.00,,,0.00,0,WeatherHawk,2013-02-19 00:00:00,
2013-02-18 18:05:00,37.8,34.5,29.53,NW,326,2.0,6.0,88,0.00,,,0.00,0,WeatherHawk,2013-02-19 00:05:00,
2013-02-18 18:10:00,37.1,34.1,29.53,West,280,1.0,6.0,89,0.08,,,0.08,0,WeatherHawk,2013-02-19 00:10:00,
2013-02-18 18:15:00,36.6,33.9,29.52,WNW,292,1.0,6.0,90,0.08,,,0.08,0,WeatherHawk,2013-02-19 00:15:00,
2013-02-18 18:21:00,36.8,34.4,29.52,WNW,285,1.0,6.0,91,0.08,,,0.08,0,WeatherHawk,2013-02-19 00:21:00,
2013-02-18 18:26:00,37.0,34.9,29.53,NW,310,7.0,7.0,92,0.08,,,0.08,0,WeatherHawk,2013-02-19 00:26:00,
2013-02-18 18:31:00,36.1,34.0,29.53,WNW,296,0.0,6.0,92,0.08,,,0.08,1,WeatherHawk,2013-02-19 00:31:00,
2013-02-18 18:37:00,36.6,34.5,29.53,NNW,332,8.0,8.0,92,0.08,,,0.08,0,WeatherHawk,2013-02-19 00:37:00,
2013-02-18 18:42:00,35.7,33.3,29.52,WNW,294,5.0,7.0,91,0.08,,,0.08,0,WeatherHawk,2013-02-19 00:42:00,
2013-02-18 18:47:00,35.2,32.8,29.52,WSW,253,4.0,7.0,91,0.08,,,0.08,0,WeatherHawk,2013-02-19 00:47:00,
2013-02-18 18:52:00,35.0,32.9,29.53,NW,310,7.0,9.0,92,0.08,,,0.08,0,WeatherHawk,2013-02-19 00:52:00,
2013-02-18 18:57:00,33.9,31.9,29.53,NW,323,9.0,9.0,92,0.08,,,0.08,0,WeatherHawk,2013-02-19 00:57:00,
2013-02-18 19:05:00,34.0,32.7,29.52,WNW,302,8.0,9.0,95,0.08,,,0.08,0,WeatherHawk,2013-02-19 01:05:00,
2013-02-18 19:10:00,33.4,32.4,29.53,NNW,327,4.0,9.0,96,0.08,,,0.08,0,WeatherHawk,2013-02-19 01:10:00,
2013-02-18 19:15:00,33.2,32.4,29.52,NW,317,3.0,11.0,97,0.00,,,0.08,0,WeatherHawk,2013-02-19 01:15:00,
2013-02-18 19:20:00,32.8,32.3,29.53,WNW,296,0.0,11.0,98,0.00,,,0.08,0,WeatherHawk,2013-02-19 01:20:00,
2013-02-18 19:25:00,32.7,32.4,29.53,NNW,337,2.0,11.0,99,0.00,,,0.08,0,WeatherHawk,2013-02-19 01:25:00,
2013-02-18 19:30:00,32.4,32.4,29.53,WNW,293,2.0,11.0,100,0.00,,,0.08,0,WeatherHawk,2013-02-19 01:30:00,
2013-02-18 19:36:00,32.3,32.3,29.52,NNW,343,1.0,-999.0,100,0.00,,,0.08,0,WeatherHawk,2013-02-19 01:36:00,
2013-02-18 19:43:00,32.2,32.2,29.53,WNW,300,0.0,5.0,100,0.00,,,0.08,1,WeatherHawk,2013-02-19 01:43:00,
2013-02-18 19:48:00,32.2,32.2,29.52,WNW,286,3.0,5.0,100,0.00,,,0.08,0,WeatherHawk,2013-02-19 01:48:00,
2013-02-18 19:53:00,32.1,32.1,29.52,NW,313,0.0,5.0,100,0.00,,,0.08,0,WeatherHawk,2013-02-19 01:53:00,
2013-02-18 19:59:00,32.1,32.1,29.52,NNW,332,0.0,5.0,100,0.00,,,0.08,1,WeatherHawk,2013-02-19 01:59:00,
2013-02-18 20:04:00,32.0,32.0,29.51,NW,319,2.0,4.0,100,0.00,,,0.08,0,WeatherHawk,2013-02-19 02:04:00,
2013-02-18 20:09:00,32.1,32.1,29.51,NW,305,2.0,4.0,100,0.00,,,0.08,1,WeatherHawk,2013-02-19 02:09:00,
2013-02-18 20:15:00,32.0,32.0,29.50,NW,313,2.0,6.0,100,0.00,,,0.08,0,WeatherHawk,2013-02-19 02:15:00,
2013-02-18 20:20:00,32.0,32.0,29.51,NW,313,0.0,6.0,100,0.00,,,0.08,0,WeatherHawk,2013-02-19 02:20:00,
2013-02-18 20:26:00,32.0,32.0,29.51,NW,312,0.0,4.0,100,0.00,,,0.08,0,WeatherHawk,2013-02-19 02:26:00,
2013-02-18 20:31:00,32.1,32.1,29.51,NW,311,0.0,4.0,100,0.00,,,0.08,0,WeatherHawk,2013-02-19 02:31:00,
2013-02-18 20:36:00,32.1,32.1,29.51,NW,311,0.0,-999.0,100,0.00,,,0.08,1,WeatherHawk,2013-02-19 02:36:00,
2013-02-18 20:42:00,32.1,32.1,29.51,NW,311,0.0,0.0,100,0.00,,,0.08,0,WeatherHawk,2013-02-19 02:42:00,
2013-02-18 20:47:00,32.0,32.0,29.51,NW,310,0.0,0.0,100,0.00,,,0.08,0,WeatherHawk,2013-02-19 02:47:00,
2013-02-18 20:52:00,32.1,32.1,29.50,West,271,0.0,0.0,100,0.00,,,0.08,0,WeatherHawk,2013-02-19 02:52:00,
2013-02-18 20:57:00,32.1,32.1,29.51,West,268,0.0,0.0,100,0.00,,,0.08,0,WeatherHawk,2013-02-19 02:57:00,
2013-02-18 21:03:00,32.1,32.1,29.52,WNW,283,0.0,0.0,100,0.00,,,0.08,0,WeatherHawk,2013-02-19 03:03:00,
2013-02-18 21:09:00,32.1,32.1,29.52,WNW,284,0.0,0.0,100,0.00,,,0.08,0,WeatherHawk,2013-02-19 03:09:00,
2013-02-18 21:14:00,31.9,31.9,29.51,WNW,289,7.0,0.0,100,0.08,,,0.16,0,WeatherHawk,2013-02-19 03:14:00,
2013-02-18 21:19:00,31.6,31.6,29.51,NW,323,6.0,0.0,100,0.08,,,0.16,0,WeatherHawk,2013-02-19 03:19:00,
2013-02-18 21:25:00,31.5,31.5,29.53,West,274,8.0,12.0,100,0.08,,,0.16,0,WeatherHawk,2013-02-19 03:25:00,
2013-02-18 21:30:00,31.3,31.3,29.52,NNW,338,0.0,12.0,100,0.08,,,0.16,0,WeatherHawk,2013-02-19 03:30:00,
2013-02-18 21:36:00,31.2,31.2,29.52,NW,320,0.0,11.0,100,0.08,,,0.16,0,WeatherHawk,2013-02-19 03:36:00,
2013-02-18 21:41:00,30.9,30.9,29.52,NW,320,0.0,11.0,100,0.08,,,0.16,0,WeatherHawk,2013-02-19 03:41:00,
2013-02-18 21:46:00,30.6,30.6,29.51,NW,320,0.0,16.0,100,0.08,,,0.16,0,WeatherHawk,2013-02-19 03:46:00,
2013-02-18 21:51:00,30.3,29.8,29.52,NW,320,0.0,16.0,98,0.08,,,0.16,0,WeatherHawk,2013-02-19 03:51:00,
2013-02-18 21:56:00,30.2,28.7,29.52,NW,320,0.0,-999.0,94,0.08,,,0.16,0,WeatherHawk,2013-02-19 03:56:00,
2013-02-18 22:03:00,29.7,27.1,29.53,NW,320,0.0,0.0,90,0.08,,,0.16,0,WeatherHawk,2013-02-19 04:03:00,
2013-02-18 22:08:00,29.3,26.7,29.53,NW,320,0.0,0.0,90,0.08,,,0.16,0,WeatherHawk,2013-02-19 04:08:00,
2013-02-18 22:14:00,28.8,25.5,29.53,NW,320,0.0,0.0,87,0.08,,,0.16,0,WeatherHawk,2013-02-19 04:14:00,
2013-02-18 22:19:00,28.6,25.2,29.54,NW,320,0.0,0.0,87,0.00,,,0.16,0,WeatherHawk,2013-02-19 04:19:00,
2013-02-18 22:24:00,28.4,25.3,29.54,NW,320,0.0,0.0,88,0.00,,,0.16,0,WeatherHawk,2013-02-19 04:24:00,
2013-02-18 22:29:00,28.1,25.5,29.54,NW,320,0.0,0.0,90,0.00,,,0.16,0,WeatherHawk,2013-02-19 04:29:00,
2013-02-18 22:34:00,27.8,25.5,29.54,NW,320,0.0,0.0,91,0.00,,,0.16,0,WeatherHawk,2013-02-19 04:34:00,
2013-02-18 22:39:00,27.0,24.7,29.55,NW,320,0.0,0.0,91,0.00,,,0.16,0,WeatherHawk,2013-02-19 04:39:00,
2013-02-18 22:44:00,26.5,23.4,29.55,NW,320,0.0,0.0,88,0.00,,,0.16,0,WeatherHawk,2013-02-19 04:44:00,
2013-02-18 22:53:00,26.3,23.5,29.56,NW,320,0.0,-999.0,89,0.00,,,0.16,0,WeatherHawk,2013-02-19 04:53:00,
2013-02-18 23:06:00,25.0,21.7,29.57,NW,320,0.0,0.0,87,0.00,,,0.16,1,WeatherHawk,2013-02-19 05:06:00,
2013-02-18 23:12:00,24.8,21.5,29.58,NW,320,0.0,0.0,87,0.00,,,0.16,0,WeatherHawk,2013-02-19 05:12:00,
2013-02-18 23:17:00,24.5,20.6,29.58,NW,320,0.0,0.0,85,0.00,,,0.16,0,WeatherHawk,2013-02-19 05:17:00,
2013-02-18 23:22:00,24.0,19.3,29.58,NW,320,0.0,0.0,82,0.00,,,0.16,1,WeatherHawk,2013-02-19 05:22:00,
2013-02-18 23:27:00,23.2,18.0,29.58,NW,320,0.0,0.0,80,0.00,,,0.16,1,WeatherHawk,2013-02-19 05:27:00,
2013-02-18 23:30:00,23.2,18.3,29.59,NW,320,0.0,0.0,81,0.00,,,0.16,0,WeatherHawk,2013-02-19 05:30:00,
2013-02-18 23:36:00,22.7,17.4,29.59,NW,320,0.0,0.0,80,0.00,,,0.16,0,WeatherHawk,2013-02-19 05:36:00,
2013-02-18 23:41:00,22.4,16.9,29.59,NW,320,0.0,0.0,79,0.00,,,0.16,0,WeatherHawk,2013-02-19 05:41:00,
2013-02-18 23:46:00,22.3,17.1,29.59,NW,320,0.0,0.0,80,0.00,,,0.16,0,WeatherHawk,2013-02-19 05:46:00,
2013-02-18 23:51:00,22.3,17.7,29.60,NW,320,0.0,-999.0,82,0.00,,,0.16,0,WeatherHawk,2013-02-19 05:51:00,
2013-02-18 23:56:00,21.5,16.3,29.60,NW,320,0.0,0.0,80,0.00,,,0.16,0,WeatherHawk,2013-02-19 05:56:00,